createdAt,value
2019-05-20T00:01:51.841Z,56.13
2019-05-20T00:04:18.011Z,58.20
2019-05-20T00:06:44.951Z,59.67
2019-05-20T00:09:11.259Z,57.03
2019-05-20T00:11:37.431Z,57.63
2019-05-20T00:14:03.612Z,58.87
2019-05-20T00:16:29.869Z,56.47
2019-05-20T00:18:56.030Z,54.93
2019-05-20T00:21:22.316Z,55.03
2019-05-20T00:23:48.638Z,52.03
2019-05-20T00:26:14.811Z,48.30
2019-05-20T00:28:40.975Z,43.77
2019-05-20T00:31:07.174Z,45.93
2019-05-20T00:33:33.358Z,44.70
2019-05-20T00:35:59.534Z,44.20
2019-05-20T00:38:25.741Z,44.77
2019-05-20T00:40:51.913Z,45.67
2019-05-20T00:43:18.081Z,45.20
2019-05-20T00:45:44.279Z,46.87
2019-05-20T00:48:10.453Z,44.47
2019-05-20T00:50:36.631Z,46.67
2019-05-20T00:53:02.818Z,47.47
2019-05-20T00:55:30.293Z,44.20
2019-05-20T00:57:56.490Z,42.33
2019-05-20T01:00:23.193Z,41.17
2019-05-20T01:02:56.966Z,42.03
2019-05-20T01:05:17.390Z,42.27
2019-05-20T01:07:44.507Z,40.47
2019-05-20T01:10:10.852Z,40.40
2019-05-20T01:12:36.987Z,40.17
2019-05-20T01:15:04.538Z,39.20
2019-05-20T01:17:30.968Z,37.30
2019-05-20T01:19:57.085Z,37.73
2019-05-20T01:22:23.292Z,38.10
2019-05-20T01:24:49.465Z,39.40
2019-05-20T01:27:15.646Z,40.27
2019-05-20T01:29:41.851Z,37.93
2019-05-20T01:32:08.226Z,37.30
2019-05-20T01:34:34.482Z,35.23
2019-05-20T01:37:00.687Z,34.43
2019-05-20T01:39:26.941Z,35.30
2019-05-20T01:41:53.119Z,36.53
2019-05-20T01:44:19.422Z,38.07
2019-05-20T01:46:45.616Z,37.87
2019-05-20T01:49:11.786Z,36.17
2019-05-20T01:51:37.994Z,37.30
2019-05-20T01:54:04.165Z,35.43
2019-05-20T01:56:30.342Z,36.47
2019-05-20T01:58:56.546Z,36.67
2019-05-20T02:01:22.724Z,37.93
2019-05-20T02:03:48.900Z,36.13
2019-05-20T02:06:15.355Z,37.67
2019-05-20T02:08:43.904Z,37.07
2019-05-20T02:11:10.090Z,36.63
2019-05-20T02:13:38.208Z,34.47
2019-05-20T02:16:06.291Z,33.80
2019-05-20T02:18:32.531Z,36.80
2019-05-20T02:20:58.835Z,38.37
2019-05-20T02:23:25.003Z,36.70
2019-05-20T02:25:51.188Z,36.40
2019-05-20T02:28:17.735Z,37.10
2019-05-20T02:30:43.911Z,39.67
2019-05-20T02:33:10.496Z,36.00
2019-05-20T02:35:36.799Z,35.43
2019-05-20T02:38:03.166Z,34.37
2019-05-20T02:40:29.335Z,36.10
2019-05-20T02:42:55.536Z,32.50
2019-05-20T02:45:21.807Z,33.33
2019-05-20T02:47:48.162Z,29.93
2019-05-20T02:50:14.379Z,31.13
2019-05-20T02:52:41.360Z,31.60
2019-05-20T02:55:07.943Z,36.10
2019-05-20T02:57:34.134Z,34.87
2019-05-20T03:00:00.424Z,34.03
2019-05-20T03:02:26.679Z,33.83
2019-05-20T03:04:52.884Z,33.33
2019-05-20T03:07:19.050Z,33.43
2019-05-20T03:09:46.500Z,34.30
2019-05-20T03:12:12.794Z,35.73
2019-05-20T03:14:38.966Z,38.87
2019-05-20T03:17:05.141Z,39.63
2019-05-20T03:19:31.337Z,39.93
2019-05-20T03:21:57.507Z,33.30
2019-05-20T03:24:23.687Z,36.77
2019-05-20T03:26:49.892Z,34.23
2019-05-20T03:29:16.056Z,36.03
2019-05-20T03:31:42.527Z,36.50
2019-05-20T03:34:09.043Z,33.60
2019-05-20T03:36:35.484Z,34.97
2019-05-20T03:39:01.687Z,36.83
2019-05-20T03:41:27.992Z,40.20
2019-05-20T03:43:54.186Z,36.23
2019-05-20T03:46:20.342Z,34.37
2019-05-20T03:48:46.542Z,37.17
2019-05-20T03:51:12.748Z,37.03
2019-05-20T03:53:38.900Z,31.90
2019-05-20T03:56:05.110Z,34.70
2019-05-20T03:58:31.310Z,37.67
2019-05-20T04:00:57.470Z,38.03
2019-05-20T04:03:23.771Z,37.57
2019-05-20T04:05:49.972Z,40.53
2019-05-20T04:08:16.139Z,38.20
2019-05-20T04:10:43.755Z,39.50
2019-05-20T04:13:09.940Z,39.13
2019-05-20T04:15:36.114Z,40.93
2019-05-20T04:18:02.303Z,40.97
2019-05-20T04:20:28.491Z,43.00
2019-05-20T04:22:54.760Z,42.00
2019-05-20T04:25:21.171Z,40.47
2019-05-20T04:27:47.455Z,41.57
2019-05-20T04:30:13.835Z,38.67
2019-05-20T04:32:40.035Z,39.03
2019-05-20T04:35:21.196Z,36.20
2019-05-20T04:37:34.254Z,38.70
2019-05-20T04:40:00.472Z,37.23
2019-05-20T04:42:26.665Z,42.50
2019-05-20T04:44:52.827Z,41.03
2019-05-20T04:47:19.027Z,40.43
2019-05-20T04:49:45.207Z,43.37
2019-05-20T04:52:11.383Z,40.73
2019-05-20T04:54:38.159Z,40.27
2019-05-20T04:57:04.339Z,42.00
2019-05-20T04:59:30.519Z,37.03
2019-05-20T05:01:56.721Z,37.37
2019-05-20T05:04:22.965Z,36.37
2019-05-20T05:06:49.154Z,38.30
2019-05-20T05:09:15.783Z,36.00
2019-05-20T05:11:42.704Z,37.47
2019-05-20T05:14:08.872Z,37.87
2019-05-20T05:16:35.066Z,37.77
2019-05-20T05:19:01.241Z,36.20
2019-05-20T05:21:28.506Z,37.37
2019-05-20T05:23:59.305Z,36.87
2019-05-20T05:26:23.378Z,35.83
2019-05-20T05:28:49.556Z,34.70
2019-05-20T05:31:15.919Z,34.63
2019-05-20T05:33:44.901Z,34.20
2019-05-20T05:36:11.102Z,34.20
2019-05-20T05:38:37.336Z,31.23
2019-05-20T05:41:03.659Z,30.80
2019-05-20T05:43:29.862Z,27.83
2019-05-20T05:45:56.158Z,26.03
2019-05-20T05:48:22.336Z,25.93
2019-05-20T05:50:48.501Z,25.40
2019-05-20T05:53:14.704Z,27.73
2019-05-20T05:55:41.033Z,26.50
2019-05-20T05:58:08.768Z,26.20
2019-05-20T06:00:35.335Z,23.40
2019-05-20T06:03:01.650Z,23.63
2019-05-20T06:05:31.469Z,21.77
2019-05-20T06:07:55.903Z,25.97
2019-05-20T06:10:22.106Z,23.40
2019-05-20T06:12:49.247Z,22.43
2019-05-20T06:15:15.771Z,23.27
2019-05-20T06:17:42.095Z,26.80
2019-05-20T06:20:08.730Z,25.07
2019-05-20T06:22:35.023Z,23.17
2019-05-20T06:25:01.491Z,22.23
2019-05-20T06:27:27.720Z,22.20
2019-05-20T06:29:54.259Z,21.97
2019-05-20T06:32:20.436Z,23.00
2019-05-20T06:34:46.614Z,23.03
2019-05-20T06:37:14.723Z,20.70
2019-05-20T06:39:40.991Z,18.77
2019-05-20T06:42:07.171Z,17.40
2019-05-20T06:44:33.378Z,18.87
2019-05-20T06:46:59.550Z,18.83
2019-05-20T06:49:25.735Z,17.70
2019-05-20T06:51:51.918Z,18.00
2019-05-20T06:54:18.096Z,20.07
2019-05-20T06:56:44.645Z,18.27
2019-05-20T06:59:10.933Z,16.80
2019-05-20T07:01:37.207Z,19.37
2019-05-20T07:04:03.396Z,19.77
2019-05-20T07:06:44.814Z,21.13
2019-05-20T07:08:57.708Z,20.20
2019-05-20T07:11:23.892Z,17.57
2019-05-20T07:13:53.437Z,16.40
2019-05-20T07:16:19.603Z,19.23
2019-05-20T07:18:45.779Z,20.33
2019-05-20T07:21:11.980Z,19.30
2019-05-20T07:23:38.150Z,16.57
2019-05-20T07:26:04.445Z,16.40
2019-05-20T07:28:30.761Z,14.70
2019-05-20T07:30:56.933Z,16.37
2019-05-20T07:33:23.108Z,17.70
2019-05-20T07:35:49.322Z,19.07
2019-05-20T07:38:15.484Z,18.97
2019-05-20T07:40:41.869Z,17.10
2019-05-20T07:43:08.146Z,16.53
2019-05-20T07:45:34.838Z,16.27
2019-05-20T07:48:01.721Z,15.13
2019-05-20T07:50:28.447Z,16.53
2019-05-20T07:52:54.632Z,16.17
2019-05-20T07:55:22.458Z,14.60
2019-05-20T07:57:48.818Z,15.80
2019-05-20T08:00:15.189Z,15.03
2019-05-20T08:02:41.376Z,14.23
2019-05-20T08:05:07.999Z,14.57
2019-05-20T08:07:50.286Z,14.17
2019-05-20T08:10:03.811Z,14.77
2019-05-20T08:12:30.015Z,14.07
2019-05-20T08:14:57.447Z,14.27
2019-05-20T08:17:23.617Z,16.37
2019-05-20T08:19:50.074Z,13.33
2019-05-20T08:22:16.254Z,14.67
2019-05-20T08:24:42.490Z,15.90
2019-05-20T08:27:10.820Z,15.97
2019-05-20T08:29:37.222Z,16.57
2019-05-20T08:32:03.632Z,15.43
2019-05-20T08:34:30.264Z,15.40
2019-05-20T08:36:56.705Z,14.10
2019-05-20T08:39:22.876Z,14.03
2019-05-20T08:41:49.282Z,13.97
2019-05-20T08:44:15.857Z,17.40
2019-05-20T08:46:42.043Z,16.83
2019-05-20T08:49:11.087Z,16.20
2019-05-20T08:51:36.489Z,16.83
2019-05-20T08:54:02.684Z,13.73
2019-05-20T08:56:29.145Z,14.50
2019-05-20T08:58:55.457Z,14.37
2019-05-20T09:01:21.676Z,13.00
2019-05-20T09:03:48.034Z,12.97
2019-05-20T09:06:14.363Z,11.57
2019-05-20T09:08:40.696Z,11.10
2019-05-20T09:11:07.110Z,12.00
2019-05-20T09:13:33.439Z,11.13
2019-05-20T09:16:00.010Z,10.33
2019-05-20T09:18:26.209Z,10.00
2019-05-20T09:20:52.379Z,10.53
2019-05-20T09:23:18.848Z,10.03
2019-05-20T09:25:45.294Z,11.60
2019-05-20T09:28:11.561Z,10.30
2019-05-20T09:30:37.706Z,10.93
2019-05-20T09:33:03.927Z,11.90
2019-05-20T09:35:30.348Z,11.80
2019-05-20T09:37:56.498Z,13.57
2019-05-20T09:40:26.650Z,14.13
2019-05-20T09:42:52.866Z,13.00
2019-05-20T09:45:19.051Z,14.17
2019-05-20T09:47:45.767Z,16.17
2019-05-20T09:50:12.000Z,17.27
2019-05-20T09:52:38.174Z,17.53
2019-05-20T09:55:05.190Z,16.87
2019-05-20T09:57:31.565Z,19.93
2019-05-20T09:59:57.826Z,20.33
2019-05-20T10:02:33.860Z,17.37
2019-05-20T10:04:52.025Z,18.43
2019-05-20T10:07:18.323Z,17.37
2019-05-20T10:09:44.565Z,16.63
2019-05-20T10:12:11.102Z,14.63
2019-05-20T10:14:37.279Z,14.10
2019-05-20T10:17:04.115Z,11.90
2019-05-20T10:19:30.295Z,13.70
2019-05-20T10:21:56.486Z,12.93
2019-05-20T10:24:23.171Z,13.97
2019-05-20T10:26:50.239Z,12.17
2019-05-20T10:29:16.423Z,12.87
2019-05-20T10:31:42.618Z,13.40
2019-05-20T10:34:08.805Z,11.50
2019-05-20T10:36:35.096Z,8.77
2019-05-20T10:39:07.869Z,8.90
2019-05-20T10:41:33.216Z,11.00
2019-05-20T10:43:59.368Z,10.77
2019-05-20T10:46:25.674Z,12.53
2019-05-20T10:48:51.913Z,13.60
2019-05-20T10:51:18.083Z,15.13
2019-05-20T10:53:44.483Z,13.90
2019-05-20T10:56:10.915Z,13.53
2019-05-20T10:58:37.316Z,11.80
2019-05-20T11:01:03.925Z,10.53
2019-05-20T11:03:30.534Z,13.77
2019-05-20T11:05:56.704Z,11.27
2019-05-20T11:08:23.009Z,11.80
2019-05-20T11:10:49.413Z,8.53
2019-05-20T11:13:15.580Z,9.33
2019-05-20T11:15:41.780Z,10.00
2019-05-20T11:18:10.308Z,11.13
2019-05-20T11:20:36.471Z,10.60
2019-05-20T11:23:02.770Z,9.90
2019-05-20T11:25:29.045Z,9.83
2019-05-20T11:27:55.347Z,11.00
2019-05-20T11:30:21.762Z,10.83
2019-05-20T11:32:47.926Z,9.23
2019-05-20T11:35:14.215Z,10.83
2019-05-20T11:37:40.514Z,12.00
2019-05-20T11:40:08.744Z,10.00
2019-05-20T11:42:35.682Z,10.40
2019-05-20T11:45:04.401Z,11.27
2019-05-20T11:47:30.784Z,10.47
2019-05-20T11:49:56.946Z,11.10
2019-05-20T11:52:23.202Z,11.83
2019-05-20T11:54:49.327Z,12.07
2019-05-20T11:57:15.508Z,12.13
2019-05-20T11:59:41.703Z,11.50
2019-05-20T12:02:07.978Z,13.30
2019-05-20T12:04:34.146Z,12.50
2019-05-20T12:07:00.350Z,12.13
2019-05-20T12:09:26.629Z,12.00
2019-05-20T12:11:52.808Z,13.70
2019-05-20T12:14:19.003Z,11.07
2019-05-20T12:16:45.191Z,11.20
2019-05-20T12:19:11.882Z,11.97
2019-05-20T12:21:38.084Z,11.20
2019-05-20T12:24:04.355Z,11.47
2019-05-20T12:26:30.535Z,12.00
2019-05-20T12:28:56.739Z,12.17
2019-05-20T12:31:22.926Z,11.20
2019-05-20T12:33:49.093Z,10.57
2019-05-20T12:36:15.390Z,11.60
2019-05-20T12:38:41.672Z,12.00
2019-05-20T12:41:07.834Z,12.50
2019-05-20T12:43:34.046Z,11.63
2019-05-20T12:46:00.216Z,12.10
2019-05-20T12:48:26.459Z,11.80
2019-05-20T12:50:52.738Z,12.73
2019-05-20T12:53:18.910Z,13.07
2019-05-20T12:55:45.082Z,11.83
2019-05-20T12:58:11.275Z,11.93
2019-05-20T13:00:37.569Z,13.13
2019-05-20T13:03:03.723Z,11.13
2019-05-20T13:05:29.931Z,12.43
2019-05-20T13:07:56.110Z,11.57
2019-05-20T13:10:29.857Z,13.17
2019-05-20T13:12:50.655Z,10.57
2019-05-20T13:15:16.834Z,11.03
2019-05-20T13:17:45.067Z,12.20
2019-05-20T13:20:13.114Z,11.50
2019-05-20T13:22:39.300Z,11.37
2019-05-20T13:25:05.771Z,11.13
2019-05-20T13:27:32.079Z,10.43
2019-05-20T13:29:58.252Z,11.87
2019-05-20T13:32:24.614Z,9.53
2019-05-20T13:34:50.831Z,9.90
2019-05-20T13:37:17.108Z,9.63
2019-05-20T13:39:43.279Z,12.93
2019-05-20T13:42:09.579Z,11.10
2019-05-20T13:44:35.754Z,10.10
2019-05-20T13:47:02.060Z,11.10
2019-05-20T13:49:28.631Z,10.53
2019-05-20T13:51:54.814Z,11.30
2019-05-20T13:54:20.991Z,11.03
2019-05-20T13:56:47.331Z,13.10
2019-05-20T13:59:13.504Z,12.17
2019-05-20T14:01:39.893Z,13.30
2019-05-20T14:04:06.223Z,12.97
2019-05-20T14:06:32.386Z,13.40
2019-05-20T14:08:58.680Z,15.33
2019-05-20T14:11:34.137Z,13.20
2019-05-20T14:13:52.860Z,14.43
2019-05-20T14:16:19.030Z,11.63
2019-05-20T14:18:45.242Z,14.40
2019-05-20T14:21:11.662Z,14.13
2019-05-20T14:23:37.889Z,18.73
2019-05-20T14:26:04.090Z,20.20
2019-05-20T14:28:30.347Z,21.67
2019-05-20T14:30:56.527Z,24.60
2019-05-20T14:33:22.740Z,21.10
2019-05-20T14:35:49.213Z,23.50
2019-05-20T14:38:15.411Z,22.57
2019-05-20T14:40:43.037Z,22.40
2019-05-20T14:43:09.249Z,21.60
2019-05-20T14:45:35.425Z,19.30
2019-05-20T14:48:01.630Z,22.00
2019-05-20T14:50:27.913Z,20.03
2019-05-20T14:52:54.236Z,19.30
2019-05-20T14:55:20.501Z,19.73
2019-05-20T14:57:46.805Z,18.17
2019-05-20T15:00:13.398Z,21.70
2019-05-20T15:02:40.198Z,21.03
2019-05-20T15:05:06.523Z,22.77
2019-05-20T15:07:32.737Z,21.37
2019-05-20T15:09:58.978Z,20.90
2019-05-20T15:12:25.247Z,19.97
2019-05-20T15:14:51.558Z,21.20
2019-05-20T15:17:17.779Z,20.20
2019-05-20T15:19:43.966Z,19.80
2019-05-20T15:22:11.475Z,20.13
2019-05-20T15:24:37.772Z,18.70
2019-05-20T15:27:04.073Z,17.37
2019-05-20T15:29:30.406Z,19.00
2019-05-20T15:31:56.706Z,19.30
2019-05-20T15:34:22.875Z,17.73
2019-05-20T15:36:49.080Z,16.33
2019-05-20T15:39:15.264Z,16.33
2019-05-20T15:41:41.438Z,16.70
2019-05-20T15:44:07.614Z,15.73
2019-05-20T15:46:34.612Z,16.27
2019-05-20T15:49:00.787Z,16.63
2019-05-20T15:51:26.972Z,15.33
2019-05-20T15:53:53.154Z,17.30
2019-05-20T15:56:19.467Z,17.50
2019-05-20T15:58:45.844Z,17.57
2019-05-20T16:01:12.050Z,17.23
2019-05-20T16:03:38.236Z,16.53
2019-05-20T16:06:04.482Z,16.53
2019-05-20T16:08:30.753Z,14.57
2019-05-20T16:10:56.890Z,16.20
2019-05-20T16:13:23.144Z,15.13
2019-05-20T16:15:49.273Z,15.37
2019-05-20T16:18:15.499Z,14.70
2019-05-20T16:20:41.636Z,13.97
2019-05-20T16:23:09.026Z,14.67
2019-05-20T16:25:35.196Z,15.27
2019-05-20T16:28:01.374Z,16.27
2019-05-20T16:30:27.766Z,16.70
2019-05-20T16:32:53.950Z,16.47
2019-05-20T16:35:20.227Z,16.10
2019-05-20T16:37:46.425Z,17.10
2019-05-20T16:40:12.838Z,15.50
2019-05-20T16:42:39.196Z,16.97
2019-05-20T16:45:06.607Z,17.27
2019-05-20T16:47:32.779Z,18.27
2019-05-20T16:49:59.158Z,18.73
2019-05-20T16:52:25.473Z,18.53
2019-05-20T16:54:51.654Z,17.43
2019-05-20T16:57:17.830Z,20.67
2019-05-20T16:59:44.261Z,21.43
2019-05-20T17:02:10.430Z,18.73
2019-05-20T17:04:36.609Z,21.73
2019-05-20T17:07:03.002Z,22.60
2019-05-20T17:09:29.258Z,22.30
2019-05-20T17:11:55.370Z,22.40
2019-05-20T17:14:21.609Z,21.83
2019-05-20T17:16:47.758Z,24.17
2019-05-20T17:19:13.930Z,24.07
2019-05-20T17:21:40.134Z,24.03
2019-05-20T17:24:06.750Z,22.83
2019-05-20T17:26:32.927Z,22.03
2019-05-20T17:28:59.226Z,22.60
2019-05-20T17:31:26.762Z,23.80
2019-05-20T17:33:53.187Z,22.13
2019-05-20T17:36:19.626Z,21.10
2019-05-20T17:38:45.798Z,20.27
2019-05-20T17:41:12.286Z,17.60
2019-05-20T17:43:38.483Z,18.87
2019-05-20T17:46:04.656Z,18.23
2019-05-20T17:48:31.051Z,17.43
2019-05-20T17:50:57.330Z,16.97
2019-05-20T17:53:23.510Z,18.10
2019-05-20T17:55:49.791Z,16.13
2019-05-20T17:58:15.993Z,16.80
2019-05-20T18:00:42.477Z,18.10
2019-05-20T18:03:08.647Z,17.33
2019-05-20T18:05:34.966Z,17.23
2019-05-20T18:08:01.247Z,18.10
2019-05-20T18:10:27.433Z,16.73
2019-05-20T18:12:53.859Z,15.87
2019-05-20T18:15:20.042Z,16.93
2019-05-20T18:17:46.218Z,15.90
2019-05-20T18:20:13.151Z,14.37
2019-05-20T18:22:39.525Z,17.37
2019-05-20T18:25:06.135Z,16.70
2019-05-20T18:27:32.334Z,18.63
2019-05-20T18:29:58.506Z,17.50
2019-05-20T18:32:24.691Z,18.53
2019-05-20T18:34:50.890Z,19.43
2019-05-20T18:37:17.063Z,19.10
2019-05-20T18:39:43.234Z,18.47
2019-05-20T18:42:09.623Z,17.47
2019-05-20T18:44:35.803Z,18.47
2019-05-20T18:47:02.075Z,18.70
2019-05-20T18:49:28.500Z,17.50
2019-05-20T18:51:54.738Z,17.07
2019-05-20T18:54:20.922Z,17.93
2019-05-20T18:56:47.110Z,20.27
2019-05-20T18:59:13.285Z,20.80
2019-05-20T19:01:55.852Z,20.27
2019-05-20T19:04:07.484Z,20.30
2019-05-20T19:06:33.758Z,18.27
2019-05-20T19:08:59.925Z,18.27
2019-05-20T19:11:26.330Z,18.57
2019-05-20T19:13:52.609Z,16.73
2019-05-20T19:16:18.840Z,18.50
2019-05-20T19:18:44.978Z,16.33
2019-05-20T19:21:11.158Z,16.90
2019-05-20T19:23:37.328Z,17.90
2019-05-20T19:26:04.170Z,16.83
2019-05-20T19:28:30.347Z,16.50
2019-05-20T19:30:56.523Z,17.90
2019-05-20T19:33:22.742Z,18.10
2019-05-20T19:35:48.927Z,18.50
2019-05-20T19:38:15.099Z,18.13
2019-05-20T19:40:41.601Z,19.00
2019-05-20T19:43:07.770Z,18.80
2019-05-20T19:45:33.951Z,18.57
2019-05-20T19:48:00.154Z,20.20
2019-05-20T19:50:26.426Z,20.47
2019-05-20T19:52:52.693Z,17.50
2019-05-20T19:55:19.335Z,18.83
2019-05-20T19:57:45.742Z,19.23
2019-05-20T20:00:11.856Z,20.53
2019-05-20T20:02:38.203Z,23.00
2019-05-20T20:05:06.598Z,20.30
2019-05-20T20:07:32.775Z,18.60
2019-05-20T20:09:58.976Z,20.90
2019-05-20T20:12:25.140Z,18.37
2019-05-20T20:14:51.483Z,17.20
2019-05-20T20:17:17.641Z,21.80
2019-05-20T20:19:43.908Z,18.90
2019-05-20T20:22:10.089Z,18.17
2019-05-20T20:24:36.396Z,19.30
2019-05-20T20:27:03.421Z,18.23
2019-05-20T20:29:29.598Z,19.67
2019-05-20T20:31:55.900Z,19.10
2019-05-20T20:34:22.068Z,19.87
2019-05-20T20:36:48.443Z,19.17
2019-05-20T20:39:14.646Z,19.87
2019-05-20T20:41:40.875Z,19.93
2019-05-20T20:44:07.063Z,22.20
2019-05-20T20:46:33.444Z,20.67
2019-05-20T20:48:59.636Z,22.93
2019-05-20T20:51:25.946Z,21.50
2019-05-20T20:53:52.148Z,21.57
2019-05-20T20:56:25.194Z,22.83
2019-05-20T20:58:46.352Z,25.90
2019-05-20T21:01:12.499Z,20.80
2019-05-20T21:03:38.676Z,20.83
2019-05-20T21:06:04.954Z,19.37
2019-05-20T21:08:31.150Z,18.40
2019-05-20T21:10:57.530Z,21.63
2019-05-20T21:13:23.704Z,19.07
2019-05-20T21:15:49.915Z,19.03
2019-05-20T21:18:16.083Z,20.57
2019-05-20T21:20:42.264Z,17.63
2019-05-20T21:23:08.463Z,17.53
2019-05-20T21:25:34.639Z,18.27
2019-05-20T21:28:02.259Z,19.57
2019-05-20T21:30:28.459Z,19.20
2019-05-20T21:33:08.273Z,19.37
2019-05-20T21:35:22.844Z,20.40
2019-05-20T21:37:49.222Z,24.23
2019-05-20T21:40:15.491Z,18.17
2019-05-20T21:42:41.671Z,19.17
2019-05-20T21:45:07.907Z,17.20
2019-05-20T21:47:34.081Z,20.23
2019-05-20T21:50:00.665Z,19.87
2019-05-20T21:52:26.952Z,20.87
2019-05-20T21:54:53.118Z,20.47
2019-05-20T21:57:19.294Z,21.63
2019-05-20T21:59:45.646Z,21.57
2019-05-20T22:02:12.126Z,23.47
2019-05-20T22:04:38.502Z,21.77
2019-05-20T22:07:04.708Z,21.90
2019-05-20T22:09:30.878Z,24.23
2019-05-20T22:11:57.286Z,25.03
2019-05-20T22:14:23.737Z,25.73
2019-05-20T22:16:50.217Z,23.17
2019-05-20T22:19:16.510Z,21.03
2019-05-20T22:21:44.806Z,16.70
2019-05-20T22:24:10.986Z,18.60
2019-05-20T22:26:37.165Z,17.63
2019-05-20T22:29:03.902Z,18.60
2019-05-20T22:31:30.081Z,18.47
2019-05-20T22:33:56.459Z,18.00
2019-05-20T22:36:22.655Z,18.30
2019-05-20T22:38:48.942Z,17.60
2019-05-20T22:41:15.298Z,17.60
2019-05-20T22:43:41.749Z,20.67
2019-05-20T22:46:08.131Z,22.60
2019-05-20T22:48:34.306Z,18.57
2019-05-20T22:51:00.595Z,16.27
2019-05-20T22:53:26.866Z,14.83
2019-05-20T22:55:53.142Z,15.63
2019-05-20T22:58:19.349Z,16.70
2019-05-20T23:00:45.725Z,15.87
2019-05-20T23:03:11.925Z,14.73
2019-05-20T23:05:38.310Z,16.23
2019-05-20T23:08:04.496Z,15.63
2019-05-20T23:10:30.880Z,15.37
2019-05-20T23:12:57.198Z,13.93
2019-05-20T23:15:23.386Z,16.33
2019-05-20T23:17:49.562Z,18.33
2019-05-20T23:20:15.746Z,19.70
2019-05-20T23:22:42.032Z,20.30
2019-05-20T23:25:08.217Z,19.67
2019-05-20T23:27:34.545Z,20.60
2019-05-20T23:30:04.762Z,20.87
2019-05-20T23:32:30.919Z,17.97
2019-05-20T23:34:57.118Z,17.70
2019-05-20T23:37:23.294Z,17.03
2019-05-20T23:39:49.498Z,15.53
2019-05-20T23:42:15.815Z,16.20
2019-05-20T23:44:41.986Z,15.67
2019-05-20T23:47:08.283Z,15.77
2019-05-20T23:49:34.481Z,17.47
2019-05-20T23:52:00.659Z,15.20
2019-05-20T23:54:26.837Z,16.23
2019-05-20T23:56:53.296Z,17.60
2019-05-20T23:59:19.627Z,16.07
